createdAt,value
2019-05-23T00:00:29.243Z,1012.73
2019-05-23T00:01:29.196Z,1012.67
2019-05-23T00:02:29.194Z,1012.69
2019-05-23T00:03:29.177Z,1012.69
2019-05-23T00:04:29.161Z,1012.70
2019-05-23T00:05:29.156Z,1012.77
2019-05-23T00:06:29.235Z,1012.73
2019-05-23T00:07:29.128Z,1012.78
2019-05-23T00:08:29.129Z,1012.72
2019-05-23T00:09:29.115Z,1012.74
2019-05-23T00:10:29.145Z,1012.75
2019-05-23T00:11:29.091Z,1012.79
2019-05-23T00:12:29.087Z,1012.73
2019-05-23T00:13:29.065Z,1012.74
2019-05-23T00:14:29.050Z,1012.73
2019-05-23T00:15:29.037Z,1012.72
2019-05-23T00:16:29.114Z,1012.75
2019-05-23T00:17:29.102Z,1012.73
2019-05-23T00:18:29.005Z,1012.75
2019-05-23T00:19:28.999Z,1012.70
2019-05-23T00:20:28.987Z,1012.77
2019-05-23T00:21:28.975Z,1012.77
2019-05-23T00:22:29.053Z,1012.77
2019-05-23T00:23:28.952Z,1012.73
2019-05-23T00:24:28.939Z,1012.72
2019-05-23T00:25:28.934Z,1012.76
2019-05-23T00:26:28.918Z,1012.76
2019-05-23T00:27:28.942Z,1012.76
2019-05-23T00:28:28.892Z,1012.72
2019-05-23T00:29:28.887Z,1012.74
2019-05-23T00:30:28.877Z,1012.74
2019-05-23T00:31:28.870Z,1012.76
2019-05-23T00:32:28.960Z,1012.77
2019-05-23T00:33:28.842Z,1012.71
2019-05-23T00:34:28.830Z,1012.76
2019-05-23T00:35:28.830Z,1012.75
2019-05-23T00:36:28.803Z,1012.73
2019-05-23T00:37:28.819Z,1012.76
2019-05-23T00:38:28.871Z,1012.77
2019-05-23T00:39:28.775Z,1012.79
2019-05-23T00:40:28.762Z,1012.72
2019-05-23T00:41:28.752Z,1012.76
2019-05-23T00:42:28.785Z,1012.74
2019-05-23T00:43:28.739Z,1012.80
2019-05-23T00:44:28.736Z,1012.72
2019-05-23T00:45:28.701Z,1012.79
2019-05-23T00:46:28.690Z,1012.77
2019-05-23T00:47:28.689Z,1012.73
2019-05-23T00:48:28.704Z,1012.78
2019-05-23T00:49:28.663Z,1012.75
2019-05-23T00:50:28.650Z,1012.79
2019-05-23T00:51:28.642Z,1012.73
2019-05-23T00:52:28.626Z,1012.77
2019-05-23T00:53:28.614Z,1012.74
2019-05-23T00:54:28.716Z,1012.77
2019-05-23T00:55:28.599Z,1012.78
2019-05-23T00:56:28.580Z,1012.87
2019-05-23T00:57:28.586Z,1012.79
2019-05-23T00:58:28.561Z,1012.79
2019-05-23T00:59:28.551Z,1012.79
2019-05-23T01:00:28.580Z,1012.82
2019-05-23T01:01:28.530Z,1012.82
2019-05-23T01:02:28.510Z,1012.80
2019-05-23T01:03:28.512Z,1012.79
2019-05-23T01:04:28.496Z,1012.79
2019-05-23T01:05:28.565Z,1012.75
2019-05-23T01:06:28.469Z,1012.85
2019-05-23T01:07:28.494Z,1012.82
2019-05-23T01:08:28.452Z,1012.89
2019-05-23T01:09:28.441Z,1012.92
2019-05-23T01:10:28.428Z,1012.88
2019-05-23T01:11:28.421Z,1012.88
2019-05-23T01:12:28.511Z,1012.96
2019-05-23T01:13:28.394Z,1012.98
2019-05-23T01:14:28.381Z,1012.93
2019-05-23T01:15:28.374Z,1013.00
2019-05-23T01:16:28.367Z,1012.96
2019-05-23T01:17:28.459Z,1012.95
2019-05-23T01:18:28.357Z,1013.00
2019-05-23T01:19:28.411Z,1012.96
2019-05-23T01:20:28.317Z,1012.97
2019-05-23T01:21:28.321Z,1012.96
2019-05-23T01:22:28.309Z,1012.99
2019-05-23T01:23:28.284Z,1012.97
2019-05-23T01:24:28.357Z,1013.00
2019-05-23T01:25:28.281Z,1013.02
2019-05-23T01:26:28.334Z,1013.01
2019-05-23T01:27:28.372Z,1013.04
2019-05-23T01:28:28.231Z,1013.02
2019-05-23T01:29:37.399Z,1013.00
2019-05-23T01:30:29.203Z,1012.99
2019-05-23T01:31:28.203Z,1013.02
2019-05-23T01:32:28.185Z,1013.02
2019-05-23T01:33:28.173Z,1013.05
2019-05-23T01:34:28.162Z,1013.02
2019-05-23T01:35:28.234Z,1013.04
2019-05-23T01:36:28.140Z,1013.01
2019-05-23T01:37:28.129Z,1013.02
2019-05-23T01:38:28.112Z,1013.04
2019-05-23T01:39:28.141Z,1013.04
2019-05-23T01:40:28.097Z,1013.03
2019-05-23T01:41:28.083Z,1013.06
2019-05-23T01:42:28.069Z,1013.05
2019-05-23T01:43:28.061Z,1013.06
2019-05-23T01:44:28.054Z,1013.04
2019-05-23T01:45:28.048Z,1013.05
2019-05-23T01:46:28.037Z,1013.07
2019-05-23T01:47:28.017Z,1013.06
2019-05-23T01:48:28.002Z,1013.12
2019-05-23T01:49:27.998Z,1013.08
2019-05-23T01:50:28.066Z,1013.10
2019-05-23T01:51:27.976Z,1013.07
2019-05-23T01:52:27.970Z,1013.08
2019-05-23T01:53:27.946Z,1013.09
2019-05-23T01:54:27.937Z,1013.06
2019-05-23T01:55:27.963Z,1013.11
2019-05-23T01:56:27.939Z,1013.09
2019-05-23T01:57:27.912Z,1013.15
2019-05-23T01:58:27.897Z,1013.11
2019-05-23T01:59:27.886Z,1013.17
2019-05-23T02:00:27.891Z,1013.18
2019-05-23T02:01:27.953Z,1013.12
2019-05-23T02:02:27.864Z,1013.13
2019-05-23T02:03:27.853Z,1013.14
2019-05-23T02:04:27.826Z,1013.19
2019-05-23T02:05:27.818Z,1013.16
2019-05-23T02:06:27.901Z,1013.16
2019-05-23T02:07:28.504Z,1013.20
2019-05-23T02:08:27.827Z,1013.24
2019-05-23T02:09:27.809Z,1013.21
2019-05-23T02:10:27.765Z,1013.23
2019-05-23T02:11:27.822Z,1013.23
2019-05-23T02:12:27.743Z,1013.22
2019-05-23T02:13:27.740Z,1013.21
2019-05-23T02:14:27.721Z,1013.22
2019-05-23T02:15:27.715Z,1013.25
2019-05-23T02:16:27.781Z,1013.23
2019-05-23T02:17:27.769Z,1013.24
2019-05-23T02:18:27.678Z,1013.25
2019-05-23T02:19:27.667Z,1013.26
2019-05-23T02:20:27.657Z,1013.24
2019-05-23T02:21:28.543Z,1013.26
2019-05-23T02:22:27.693Z,1013.25
2019-05-23T02:23:27.631Z,1013.24
2019-05-23T02:24:27.665Z,1013.22
2019-05-23T02:25:27.607Z,1013.22
2019-05-23T02:26:27.590Z,1013.21
2019-05-23T02:27:27.574Z,1013.20
2019-05-23T02:28:27.654Z,1013.23
2019-05-23T02:29:27.584Z,1013.19
2019-05-23T02:30:34.635Z,1013.18
2019-05-23T02:31:28.539Z,1013.20
2019-05-23T02:32:27.533Z,1013.20
2019-05-23T02:33:27.578Z,1013.16
2019-05-23T02:34:27.609Z,1013.14
2019-05-23T02:35:27.493Z,1013.17
2019-05-23T02:36:27.481Z,1013.18
2019-05-23T02:37:27.469Z,1013.18
2019-05-23T02:38:27.459Z,1013.20
2019-05-23T02:39:27.531Z,1013.22
2019-05-23T02:40:27.521Z,1013.17
2019-05-23T02:41:27.423Z,1013.22
2019-05-23T02:42:27.413Z,1013.20
2019-05-23T02:43:27.402Z,1013.18
2019-05-23T02:44:27.411Z,1013.16
2019-05-23T02:45:27.443Z,1013.19
2019-05-23T02:46:27.368Z,1013.14
2019-05-23T02:47:27.358Z,1013.16
2019-05-23T02:48:27.351Z,1013.16
2019-05-23T02:49:27.339Z,1013.19
2019-05-23T02:50:27.333Z,1013.11
2019-05-23T02:51:27.345Z,1013.14
2019-05-23T02:52:27.400Z,1013.14
2019-05-23T02:53:27.296Z,1013.18
2019-05-23T02:54:27.277Z,1013.22
2019-05-23T02:55:27.340Z,1013.20
2019-05-23T02:56:27.257Z,1013.16
2019-05-23T02:57:27.243Z,1013.25
2019-05-23T02:58:27.238Z,1013.25
2019-05-23T02:59:27.221Z,1013.19
2019-05-23T03:00:27.233Z,1013.27
2019-05-23T03:01:27.206Z,1013.27
2019-05-23T03:02:27.217Z,1013.26
2019-05-23T03:03:27.178Z,1013.30
2019-05-23T03:04:27.171Z,1013.28
2019-05-23T03:05:27.241Z,1013.30
2019-05-23T03:06:27.181Z,1013.32
2019-05-23T03:07:27.148Z,1013.31
2019-05-23T03:08:28.021Z,1013.27
2019-05-23T03:09:27.112Z,1013.30
2019-05-23T03:10:27.106Z,1013.26
2019-05-23T03:11:27.104Z,1013.29
2019-05-23T03:12:27.084Z,1013.31
2019-05-23T03:13:27.079Z,1013.32
2019-05-23T03:14:27.057Z,1013.35
2019-05-23T03:15:27.045Z,1013.32
2019-05-23T03:16:27.125Z,1013.31
2019-05-23T03:17:27.027Z,1013.35
2019-05-23T03:18:27.018Z,1013.32
2019-05-23T03:19:27.001Z,1013.33
2019-05-23T03:20:26.998Z,1013.32
2019-05-23T03:21:27.030Z,1013.32
2019-05-23T03:22:27.059Z,1013.32
2019-05-23T03:23:26.960Z,1013.32
2019-05-23T03:24:26.950Z,1013.38
2019-05-23T03:25:26.953Z,1013.37
2019-05-23T03:26:26.932Z,1013.36
2019-05-23T03:27:26.915Z,1013.36
2019-05-23T03:28:26.905Z,1013.35
2019-05-23T03:29:26.906Z,1013.37
2019-05-23T03:30:26.882Z,1013.34
2019-05-23T03:31:31.625Z,1013.36
2019-05-23T03:32:27.886Z,1013.40
2019-05-23T03:33:27.176Z,1013.45
2019-05-23T03:34:26.876Z,1013.43
2019-05-23T03:35:26.834Z,1013.43
2019-05-23T03:36:26.821Z,1013.46
2019-05-23T03:37:26.807Z,1013.43
2019-05-23T03:38:26.879Z,1013.41
2019-05-23T03:39:26.784Z,1013.40
2019-05-23T03:40:26.865Z,1013.41
2019-05-23T03:41:26.766Z,1013.45
2019-05-23T03:42:26.752Z,1013.42
2019-05-23T03:43:26.738Z,1013.43
2019-05-23T03:44:26.731Z,1013.44
2019-05-23T03:45:26.728Z,1013.39
2019-05-23T03:46:26.789Z,1013.47
2019-05-23T03:47:26.695Z,1013.44
2019-05-23T03:48:26.683Z,1013.42
2019-05-23T03:49:26.674Z,1013.43
2019-05-23T03:50:26.662Z,1013.42
2019-05-23T03:51:26.666Z,1013.41
2019-05-23T03:52:26.636Z,1013.36
2019-05-23T03:53:26.624Z,1013.40
2019-05-23T03:54:26.618Z,1013.39
2019-05-23T03:55:26.606Z,1013.41
2019-05-23T03:56:26.670Z,1013.45
2019-05-23T03:57:26.585Z,1013.43
2019-05-23T03:58:26.572Z,1013.44
2019-05-23T03:59:26.645Z,1013.43
2019-05-23T04:00:26.555Z,1013.44
2019-05-23T04:01:44.010Z,1013.49
2019-05-23T04:02:27.531Z,1013.47
2019-05-23T04:03:26.518Z,1013.45
2019-05-23T04:04:26.620Z,1013.49
2019-05-23T04:05:26.528Z,1013.46
2019-05-23T04:06:26.507Z,1013.49
2019-05-23T04:07:26.475Z,1013.54
2019-05-23T04:08:26.458Z,1013.55
2019-05-23T04:09:26.456Z,1013.57
2019-05-23T04:10:26.558Z,1013.55
2019-05-23T04:11:26.439Z,1013.61
2019-05-23T04:12:26.414Z,1013.61
2019-05-23T04:13:26.405Z,1013.59
2019-05-23T04:14:26.401Z,1013.60
2019-05-23T04:15:28.035Z,1013.62
2019-05-23T04:16:30.447Z,1013.63
2019-05-23T04:17:26.448Z,1013.65
2019-05-23T04:18:26.355Z,1013.65
2019-05-23T04:19:26.340Z,1013.69
2019-05-23T04:20:26.324Z,1013.67
2019-05-23T04:21:26.326Z,1013.70
2019-05-23T04:22:26.354Z,1013.70
2019-05-23T04:23:26.291Z,1013.69
2019-05-23T04:24:34.101Z,1013.66
2019-05-23T04:25:26.277Z,1013.69
2019-05-23T04:26:26.280Z,1013.62
2019-05-23T04:27:26.251Z,1013.62
2019-05-23T04:28:26.251Z,1013.70
2019-05-23T04:29:26.259Z,1013.66
2019-05-23T04:30:26.212Z,1013.66
2019-05-23T04:31:26.207Z,1013.66
2019-05-23T04:32:26.188Z,1013.69
2019-05-23T04:33:26.228Z,1013.71
2019-05-23T04:34:26.167Z,1013.69
2019-05-23T04:35:26.160Z,1013.73
2019-05-23T04:36:26.150Z,1013.72
2019-05-23T04:37:26.135Z,1013.67
2019-05-23T04:38:26.160Z,1013.72
2019-05-23T04:39:26.243Z,1013.70
2019-05-23T04:40:26.111Z,1013.69
2019-05-23T04:41:26.107Z,1013.75
2019-05-23T04:42:26.084Z,1013.72
2019-05-23T04:43:26.071Z,1013.73
2019-05-23T04:44:26.065Z,1013.75
2019-05-23T04:45:26.046Z,1013.74
2019-05-23T04:46:26.046Z,1013.76
2019-05-23T04:47:26.025Z,1013.74
2019-05-23T04:48:26.009Z,1013.76
2019-05-23T04:49:26.038Z,1013.76
2019-05-23T04:50:25.995Z,1013.76
2019-05-23T04:51:25.992Z,1013.76
2019-05-23T04:52:25.974Z,1013.81
2019-05-23T04:53:25.962Z,1013.80
2019-05-23T04:54:25.950Z,1013.82
2019-05-23T04:55:26.046Z,1013.81
2019-05-23T04:56:25.930Z,1013.79
2019-05-23T04:57:25.911Z,1013.78
2019-05-23T04:58:25.899Z,1013.76
2019-05-23T04:59:25.902Z,1013.77
2019-05-23T05:00:25.954Z,1013.80
2019-05-23T05:01:25.879Z,1013.85
2019-05-23T05:02:27.143Z,1013.79
2019-05-23T05:03:25.853Z,1013.81
2019-05-23T05:04:25.850Z,1013.78
2019-05-23T05:05:25.829Z,1013.76
2019-05-23T05:06:25.926Z,1013.75
2019-05-23T05:07:25.815Z,1013.76
2019-05-23T05:08:25.794Z,1013.80
2019-05-23T05:09:25.788Z,1013.77
2019-05-23T05:10:25.767Z,1013.82
2019-05-23T05:11:30.213Z,1013.82
2019-05-23T05:12:25.745Z,1013.83
2019-05-23T05:13:25.738Z,1013.85
2019-05-23T05:14:25.722Z,1013.78
2019-05-23T05:15:25.716Z,1013.83
2019-05-23T05:16:25.785Z,1013.82
2019-05-23T05:17:25.686Z,1013.87
2019-05-23T05:18:25.682Z,1013.83
2019-05-23T05:19:25.671Z,1013.87
2019-05-23T05:20:25.656Z,1013.85
2019-05-23T05:21:25.683Z,1013.86
2019-05-23T05:22:25.636Z,1013.88
2019-05-23T05:23:25.636Z,1013.87
2019-05-23T05:24:25.618Z,1013.87
2019-05-23T05:25:25.601Z,1013.92
2019-05-23T05:26:25.677Z,1013.92
2019-05-23T05:27:25.664Z,1013.89
2019-05-23T05:28:25.575Z,1013.88
2019-05-23T05:29:25.561Z,1013.84
2019-05-23T05:30:25.544Z,1013.82
2019-05-23T05:31:25.541Z,1013.84
2019-05-23T05:32:41.430Z,1013.87
2019-05-23T05:33:26.519Z,1013.85
2019-05-23T05:34:25.525Z,1013.87
2019-05-23T05:35:25.497Z,1013.86
2019-05-23T05:36:25.485Z,1013.90
2019-05-23T05:37:25.474Z,1013.90
2019-05-23T05:38:28.557Z,1013.89
2019-05-23T05:39:25.532Z,1013.90
2019-05-23T05:40:25.442Z,1013.88
2019-05-23T05:41:25.425Z,1013.90
2019-05-23T05:42:25.417Z,1013.93
2019-05-23T05:43:25.424Z,1013.95
2019-05-23T05:44:25.508Z,1013.94
2019-05-23T05:45:25.442Z,1013.89
2019-05-23T05:46:25.381Z,1013.86
2019-05-23T05:47:25.356Z,1013.88
2019-05-23T05:48:25.355Z,1013.94
2019-05-23T05:49:25.345Z,1013.94
2019-05-23T05:50:25.358Z,1013.94
2019-05-23T05:51:25.316Z,1013.95
2019-05-23T05:52:25.305Z,1013.96
2019-05-23T05:53:25.293Z,1013.99
2019-05-23T05:54:25.284Z,1013.88
2019-05-23T05:55:25.317Z,1013.90
2019-05-23T05:56:25.266Z,1013.89
2019-05-23T05:57:25.327Z,1013.95
2019-05-23T05:58:25.251Z,1013.95
2019-05-23T05:59:25.290Z,1013.98
2019-05-23T06:00:25.218Z,1013.92
2019-05-23T06:01:34.090Z,1013.95
2019-05-23T06:02:26.195Z,1013.94
2019-05-23T06:03:25.186Z,1013.93
2019-05-23T06:04:25.170Z,1013.93
2019-05-23T06:05:25.163Z,1013.97
2019-05-23T06:06:25.205Z,1013.98
2019-05-23T06:07:25.139Z,1014.03
2019-05-23T06:08:25.148Z,1013.98
2019-05-23T06:09:25.111Z,1014.01
2019-05-23T06:10:25.102Z,1013.99
2019-05-23T06:11:25.125Z,1013.99
2019-05-23T06:12:25.088Z,1013.95
2019-05-23T06:13:25.076Z,1013.98
2019-05-23T06:14:25.065Z,1013.99
2019-05-23T06:15:25.049Z,1014.04
2019-05-23T06:16:25.063Z,1014.01
2019-05-23T06:17:25.069Z,1014.02
2019-05-23T06:18:25.015Z,1014.08
2019-05-23T06:19:25.007Z,1014.06
2019-05-23T06:20:24.996Z,1014.06
2019-05-23T06:21:25.048Z,1014.06
2019-05-23T06:22:24.992Z,1014.07
2019-05-23T06:23:24.976Z,1014.06
2019-05-23T06:24:41.740Z,1014.09
2019-05-23T06:25:25.951Z,1014.07
2019-05-23T06:26:24.998Z,1014.06
2019-05-23T06:27:25.033Z,1014.08
2019-05-23T06:28:24.966Z,1014.08
2019-05-23T06:29:25.323Z,1014.00
2019-05-23T06:30:24.888Z,1014.08
2019-05-23T06:31:24.954Z,1014.05
2019-05-23T06:32:24.932Z,1014.08
2019-05-23T06:33:24.872Z,1014.05
2019-05-23T06:34:24.888Z,1014.05
2019-05-23T06:35:24.833Z,1014.06
2019-05-23T06:36:24.815Z,1014.07
2019-05-23T06:37:24.806Z,1014.12
2019-05-23T06:38:24.829Z,1014.12
2019-05-23T06:39:24.886Z,1014.09
2019-05-23T06:40:24.783Z,1014.13
2019-05-23T06:41:24.769Z,1014.14
2019-05-23T06:42:24.759Z,1014.11
2019-05-23T06:43:24.749Z,1014.17
2019-05-23T06:44:24.747Z,1014.17
2019-05-23T06:45:24.757Z,1014.17
2019-05-23T06:46:24.720Z,1014.21
2019-05-23T06:47:24.734Z,1014.13
2019-05-23T06:48:24.722Z,1014.16
2019-05-23T06:49:24.694Z,1014.20
2019-05-23T06:50:24.679Z,1014.21
2019-05-23T06:51:24.678Z,1014.18
2019-05-23T06:52:24.647Z,1014.21
2019-05-23T06:53:24.635Z,1014.22
2019-05-23T06:54:24.645Z,1014.17
2019-05-23T06:55:24.633Z,1014.23
2019-05-23T06:56:24.615Z,1014.19
2019-05-23T06:57:24.602Z,1014.22
2019-05-23T06:58:24.686Z,1014.15
2019-05-23T06:59:24.642Z,1014.22
2019-05-23T07:00:24.597Z,1014.21
2019-05-23T07:01:24.808Z,1014.23
2019-05-23T07:02:24.636Z,1014.27
2019-05-23T07:03:40.357Z,1014.21
2019-05-23T07:04:25.621Z,1014.20
2019-05-23T07:05:24.518Z,1014.19
2019-05-23T07:06:24.539Z,1014.19
2019-05-23T07:07:24.510Z,1014.21
2019-05-23T07:08:25.393Z,1014.23
2019-05-23T07:09:24.484Z,1014.24
2019-05-23T07:10:24.564Z,1014.26
2019-05-23T07:11:24.445Z,1014.23
2019-05-23T07:12:24.458Z,1014.24
2019-05-23T07:13:24.459Z,1014.29
2019-05-23T07:14:24.443Z,1014.26
2019-05-23T07:15:24.473Z,1014.26
2019-05-23T07:16:24.385Z,1014.31
2019-05-23T07:17:24.371Z,1014.26
2019-05-23T07:18:24.399Z,1014.28
2019-05-23T07:19:24.431Z,1014.29
2019-05-23T07:20:24.356Z,1014.27
2019-05-23T07:21:24.407Z,1014.23
2019-05-23T07:22:24.323Z,1014.29
2019-05-23T07:23:24.304Z,1014.30
2019-05-23T07:24:24.327Z,1014.24
2019-05-23T07:25:24.284Z,1014.28
2019-05-23T07:26:24.354Z,1014.29
2019-05-23T07:27:24.260Z,1014.26
2019-05-23T07:28:24.437Z,1014.28
2019-05-23T07:29:24.246Z,1014.30
2019-05-23T07:30:24.228Z,1014.39
2019-05-23T07:31:24.309Z,1014.34
2019-05-23T07:32:24.235Z,1014.33
2019-05-23T07:33:24.303Z,1014.36
2019-05-23T07:34:24.184Z,1014.34
2019-05-23T07:35:24.175Z,1014.32
2019-05-23T07:36:24.168Z,1014.30
2019-05-23T07:37:24.434Z,1014.31
2019-05-23T07:38:24.161Z,1014.35
2019-05-23T07:39:24.180Z,1014.32
2019-05-23T07:40:24.118Z,1014.37
2019-05-23T07:41:24.114Z,1014.33
2019-05-23T07:42:24.181Z,1014.27
2019-05-23T07:43:24.078Z,1014.31
2019-05-23T07:44:24.071Z,1014.29
2019-05-23T07:45:24.063Z,1014.35
2019-05-23T07:46:24.064Z,1014.29
2019-05-23T07:47:24.084Z,1014.29
2019-05-23T07:48:24.147Z,1014.29
2019-05-23T07:49:24.028Z,1014.31
2019-05-23T07:50:24.083Z,1014.30
2019-05-23T07:51:24.014Z,1014.32
2019-05-23T07:52:23.977Z,1014.35
2019-05-23T07:53:23.969Z,1014.25
2019-05-23T07:54:24.041Z,1014.27
2019-05-23T07:55:23.955Z,1014.30
2019-05-23T07:56:23.934Z,1014.21
2019-05-23T07:57:23.936Z,1014.18
2019-05-23T07:58:23.997Z,1014.23
2019-05-23T07:59:23.912Z,1014.30
2019-05-23T08:00:23.896Z,1014.24
2019-05-23T08:01:23.885Z,1014.29
2019-05-23T08:02:25.771Z,1014.23
2019-05-23T08:03:23.960Z,1014.28
2019-05-23T08:04:23.852Z,1014.32
2019-05-23T08:05:23.841Z,1014.27
2019-05-23T08:06:23.826Z,1014.31
2019-05-23T08:07:23.821Z,1014.37
2019-05-23T08:08:23.798Z,1014.38
2019-05-23T08:09:23.844Z,1014.40
2019-05-23T08:10:33.595Z,1014.39
2019-05-23T08:11:24.771Z,1014.33
2019-05-23T08:12:23.760Z,1014.33
2019-05-23T08:13:23.886Z,1014.35
2019-05-23T08:14:23.821Z,1014.30
2019-05-23T08:15:23.728Z,1014.39
2019-05-23T08:16:23.719Z,1014.28
2019-05-23T08:17:23.709Z,1014.45
2019-05-23T08:18:23.696Z,1014.45
2019-05-23T08:19:23.682Z,1014.45
2019-05-23T08:20:23.690Z,1014.45
2019-05-23T08:21:23.661Z,1014.38
2019-05-23T08:22:23.646Z,1014.45
2019-05-23T08:23:23.633Z,1014.42
2019-05-23T08:24:23.640Z,1014.48
2019-05-23T08:25:23.700Z,1014.44
2019-05-23T08:26:23.607Z,1014.44
2019-05-23T08:27:23.662Z,1014.47
2019-05-23T08:28:23.582Z,1014.57
2019-05-23T08:29:26.680Z,1014.60
2019-05-23T08:30:23.564Z,1014.55
2019-05-23T08:31:23.553Z,1014.60
2019-05-23T08:32:23.543Z,1014.33
2019-05-23T08:33:23.523Z,1014.53
2019-05-23T08:34:40.148Z,1014.56
2019-05-23T08:35:24.592Z,1014.62
2019-05-23T08:36:23.506Z,1014.66
2019-05-23T08:37:23.486Z,1014.72
2019-05-23T08:38:23.478Z,1014.34
2019-05-23T08:39:23.482Z,1014.63
2019-05-23T08:40:23.492Z,1014.68
2019-05-23T08:41:23.481Z,1014.53
2019-05-23T08:42:23.432Z,1014.58
2019-05-23T08:43:23.416Z,1014.61
2019-05-23T08:44:23.405Z,1014.61
2019-05-23T08:45:23.397Z,1014.66
2019-05-23T08:46:23.412Z,1014.66
2019-05-23T08:47:23.384Z,1014.68
2019-05-23T08:48:23.370Z,1014.67
2019-05-23T08:49:23.369Z,1014.72
2019-05-23T08:50:23.341Z,1014.77
2019-05-23T08:51:23.334Z,1014.69
2019-05-23T08:52:23.350Z,1014.74
2019-05-23T08:53:23.312Z,1014.75
2019-05-23T08:54:23.309Z,1014.74
2019-05-23T08:55:23.295Z,1014.74
2019-05-23T08:56:23.281Z,1014.74
2019-05-23T08:57:23.353Z,1014.75
2019-05-23T08:58:23.266Z,1014.74
2019-05-23T08:59:23.263Z,1014.77
2019-05-23T09:00:23.250Z,1014.72
2019-05-23T09:01:23.230Z,1014.67
2019-05-23T09:02:23.218Z,1014.73
2019-05-23T09:03:23.293Z,1014.79
2019-05-23T09:04:23.199Z,1014.70
2019-05-23T09:05:23.195Z,1014.75
2019-05-23T09:06:23.202Z,1014.79
2019-05-23T09:07:23.171Z,1014.81
2019-05-23T09:08:23.247Z,1014.78
2019-05-23T09:09:29.612Z,1014.80
2019-05-23T09:10:24.217Z,1014.80
2019-05-23T09:11:23.128Z,1014.85
2019-05-23T09:12:23.126Z,1014.89
2019-05-23T09:13:23.108Z,1014.86
2019-05-23T09:14:23.098Z,1014.84
2019-05-23T09:15:23.087Z,1014.87
2019-05-23T09:16:23.188Z,1014.79
2019-05-23T09:17:23.069Z,1014.82
2019-05-23T09:18:23.052Z,1014.78
2019-05-23T09:19:23.164Z,1014.77
2019-05-23T09:20:23.065Z,1014.83
2019-05-23T09:21:23.021Z,1014.76
2019-05-23T09:22:23.015Z,1014.78
2019-05-23T09:23:23.008Z,1014.74
2019-05-23T09:24:23.077Z,1014.80
2019-05-23T09:25:22.992Z,1014.85
2019-05-23T09:26:22.974Z,1014.80
2019-05-23T09:27:22.975Z,1014.85
2019-05-23T09:28:22.953Z,1014.84
2019-05-23T09:29:23.037Z,1014.83
2019-05-23T09:30:22.935Z,1014.84
2019-05-23T09:31:22.938Z,1014.83
2019-05-23T09:32:22.914Z,1014.88
2019-05-23T09:33:22.909Z,1014.88
2019-05-23T09:34:22.987Z,1014.86
2019-05-23T09:35:22.969Z,1014.86
2019-05-23T09:36:22.874Z,1014.91
2019-05-23T09:37:22.954Z,1014.84
2019-05-23T09:38:22.854Z,1014.84
2019-05-23T09:39:22.840Z,1014.85
2019-05-23T09:40:22.928Z,1014.83
2019-05-23T09:41:22.823Z,1014.84
2019-05-23T09:42:22.818Z,1014.88
2019-05-23T09:43:22.839Z,1014.92
2019-05-23T09:44:22.905Z,1014.89
2019-05-23T09:45:22.868Z,1014.83
2019-05-23T09:46:22.772Z,1014.94
2019-05-23T09:47:22.762Z,1014.93
2019-05-23T09:48:22.753Z,1014.94
2019-05-23T09:49:22.745Z,1014.94
2019-05-23T09:50:22.821Z,1015.00
2019-05-23T09:51:22.727Z,1014.95
2019-05-23T09:52:22.715Z,1014.94
2019-05-23T09:53:22.706Z,1014.99
2019-05-23T09:54:22.699Z,1014.93
2019-05-23T09:55:22.781Z,1014.98
2019-05-23T09:56:22.680Z,1014.97
2019-05-23T09:57:22.680Z,1014.92
2019-05-23T09:58:22.668Z,1014.93
2019-05-23T09:59:22.651Z,1014.94
2019-05-23T10:00:22.663Z,1014.94
2019-05-23T10:01:22.716Z,1014.94
2019-05-23T10:02:22.705Z,1014.99
2019-05-23T10:03:22.608Z,1015.05
2019-05-23T10:04:22.603Z,1014.94
2019-05-23T10:05:40.867Z,1014.96
2019-05-23T10:06:23.577Z,1014.94
2019-05-23T10:07:22.568Z,1014.90
2019-05-23T10:08:22.650Z,1014.93
2019-05-23T10:09:22.555Z,1014.89
2019-05-23T10:10:22.548Z,1014.92
2019-05-23T10:11:22.552Z,1014.85
2019-05-23T10:12:22.732Z,1014.85
2019-05-23T10:13:37.705Z,1014.93
2019-05-23T10:14:23.503Z,1014.92
2019-05-23T10:15:22.492Z,1014.90
2019-05-23T10:16:22.518Z,1014.89
2019-05-23T10:17:22.513Z,1014.88
2019-05-23T10:18:22.464Z,1014.89
2019-05-23T10:19:22.455Z,1014.90
2019-05-23T10:20:22.445Z,1014.85
2019-05-23T10:21:22.442Z,1014.84
2019-05-23T10:22:22.509Z,1014.90
2019-05-23T10:23:22.418Z,1014.93
2019-05-23T10:24:22.406Z,1014.86
2019-05-23T10:25:22.406Z,1014.82
2019-05-23T10:26:22.391Z,1014.79
2019-05-23T10:27:22.488Z,1014.77
2019-05-23T10:28:22.374Z,1014.77
2019-05-23T10:29:22.456Z,1014.73
2019-05-23T10:30:22.348Z,1014.75
2019-05-23T10:31:22.336Z,1014.69
2019-05-23T10:32:22.334Z,1014.76
2019-05-23T10:33:22.318Z,1014.71
2019-05-23T10:34:22.466Z,1014.69
2019-05-23T10:35:22.302Z,1014.75
2019-05-23T10:36:22.400Z,1014.71
2019-05-23T10:37:22.283Z,1014.68
2019-05-23T10:38:22.356Z,1014.64
2019-05-23T10:39:22.268Z,1014.62
2019-05-23T10:40:22.254Z,1014.58
2019-05-23T10:41:22.329Z,1014.54
2019-05-23T10:42:22.235Z,1014.57
2019-05-23T10:43:22.227Z,1014.61
2019-05-23T10:44:22.211Z,1014.57
2019-05-23T10:45:22.199Z,1014.53
2019-05-23T10:46:22.246Z,1014.49
2019-05-23T10:47:22.206Z,1014.50
2019-05-23T10:48:22.254Z,1014.57
2019-05-23T10:49:22.162Z,1014.63
2019-05-23T10:50:22.153Z,1014.55
2019-05-23T10:51:22.165Z,1014.47
2019-05-23T10:52:22.132Z,1014.44
2019-05-23T10:53:22.121Z,1014.45
2019-05-23T10:54:22.193Z,1014.39
2019-05-23T10:55:22.147Z,1014.41
2019-05-23T10:56:22.102Z,1014.37
2019-05-23T10:57:22.087Z,1014.40
2019-05-23T10:58:22.067Z,1014.43
2019-05-23T10:59:22.160Z,1014.46
2019-05-23T11:00:22.049Z,1014.44
2019-05-23T11:01:22.037Z,1014.40
2019-05-23T11:02:22.030Z,1014.39
2019-05-23T11:03:22.020Z,1014.29
2019-05-23T11:04:22.113Z,1014.35
2019-05-23T11:05:22.080Z,1014.30
2019-05-23T11:06:21.985Z,1014.39
2019-05-23T11:07:22.189Z,1014.39
2019-05-23T11:08:27.673Z,1014.35
2019-05-23T11:09:36.562Z,1014.30
2019-05-23T11:10:22.948Z,1014.22
2019-05-23T11:11:21.972Z,1014.15
2019-05-23T11:12:21.921Z,1014.16
2019-05-23T11:13:21.924Z,1014.10
2019-05-23T11:14:21.914Z,1014.14
2019-05-23T11:15:22.000Z,1014.05
2019-05-23T11:16:21.981Z,1014.04
2019-05-23T11:17:21.871Z,1013.99
2019-05-23T11:18:21.946Z,1014.05
2019-05-23T11:19:21.855Z,1014.02
2019-05-23T11:20:21.843Z,1014.01
2019-05-23T11:21:22.122Z,1014.00
2019-05-23T11:22:21.831Z,1013.99
2019-05-23T11:23:21.893Z,1013.96
2019-05-23T11:24:21.803Z,1013.98
2019-05-23T11:25:21.803Z,1013.95
2019-05-23T11:26:21.862Z,1013.95
2019-05-23T11:27:21.771Z,1013.92
2019-05-23T11:28:21.826Z,1013.95
2019-05-23T11:29:21.742Z,1013.93
2019-05-23T11:30:21.739Z,1013.93
2019-05-23T11:31:21.729Z,1013.96
2019-05-23T11:32:21.722Z,1013.95
2019-05-23T11:33:21.703Z,1013.94
2019-05-23T11:34:21.793Z,1013.95
2019-05-23T11:35:21.683Z,1013.94
2019-05-23T11:36:34.736Z,1013.94
2019-05-23T11:37:22.670Z,1013.93
2019-05-23T11:38:21.663Z,1013.88
2019-05-23T11:39:21.640Z,1013.88
2019-05-23T11:40:21.631Z,1013.86
2019-05-23T11:41:21.713Z,1013.90
2019-05-23T11:42:21.626Z,1013.89
2019-05-23T11:43:21.596Z,1013.94
2019-05-23T11:44:21.583Z,1013.95
2019-05-23T11:45:21.573Z,1013.93
2019-05-23T11:46:21.629Z,1013.92
2019-05-23T11:47:21.595Z,1013.94
2019-05-23T11:48:21.547Z,1013.91
2019-05-23T11:49:21.531Z,1013.94
2019-05-23T11:50:21.549Z,1013.91
2019-05-23T11:51:25.227Z,1013.93
2019-05-23T11:52:21.505Z,1013.91
2019-05-23T11:53:21.570Z,1013.96
2019-05-23T11:54:21.471Z,1013.91
2019-05-23T11:55:21.467Z,1013.90
2019-05-23T11:56:21.549Z,1013.95
2019-05-23T11:57:21.456Z,1013.98
2019-05-23T11:58:21.442Z,1013.92
2019-05-23T11:59:21.426Z,1013.89
2019-05-23T12:00:21.409Z,1013.95
2019-05-23T12:01:21.614Z,1013.91
2019-05-23T12:02:21.480Z,1013.89
2019-05-23T12:03:21.387Z,1013.88
2019-05-23T12:04:21.380Z,1013.90
2019-05-23T12:05:21.369Z,1013.81